<?xml version="1.0" encoding="UTF-8" standalone="no" ?>
<gpx xmlns="http://www.topografix.com/GPX/1/1" xmlns:xsi="http://www.w3.org/2001/XMLSchema-instance" xsi:schemaLocation="http://www.topografix.com/GPX/1/1 http://www.topografix.com/GPX/1/1/gpx.xsd" version="1.1" creator="VisuGPX - https://www.visugpx.com">
  <metadata>
    <name>2019-09-02-46-Le Montat</name>
    <desc><![CDATA[Petite randonnée d'environ 10 km pour 150m de dénivelé positif. de beaux chemins autour du village, quelques montées et descentes et surtout de beaux sous-bois]]></desc>
  </metadata>
  <trk>
    <name><![CDATA[10471411-Le Montat 02-09-2019]]></name>
    <trkseg>
      <trkpt lat="44.3796" lon="1.44651">
        <ele>260</ele>
        <time>2019-09-05T07:57:25Z</time>
      </trkpt>
      <trkpt lat="44.37988" lon="1.447">
        <ele>261</ele>
        <time>2019-09-05T07:58:25Z</time>
      </trkpt>
      <trkpt lat="44.38016" lon="1.44794">
        <ele>265</ele>
        <time>2019-09-05T08:00:02Z</time>
      </trkpt>
      <trkpt lat="44.38025" lon="1.44815">
        <ele>266</ele>
        <time>2019-09-05T08:00:25Z</time>
      </trkpt>
      <trkpt lat="44.38035" lon="1.44859">
        <ele>267</ele>
        <time>2019-09-05T08:01:09Z</time>
      </trkpt>
      <trkpt lat="44.38035" lon="1.44872">
        <ele>267</ele>
        <time>2019-09-05T08:01:22Z</time>
      </trkpt>
      <trkpt lat="44.38029" lon="1.44884">
        <ele>268</ele>
        <time>2019-09-05T08:01:36Z</time>
      </trkpt>
      <trkpt lat="44.3803" lon="1.44901">
        <ele>268</ele>
        <time>2019-09-05T08:01:52Z</time>
      </trkpt>
      <trkpt lat="44.38035" lon="1.44917">
        <ele>268</ele>
        <time>2019-09-05T08:02:09Z</time>
      </trkpt>
      <trkpt lat="44.38034" lon="1.44946">
        <ele>265</ele>
        <time>2019-09-05T08:02:36Z</time>
      </trkpt>
      <trkpt lat="44.38029" lon="1.44957">
        <ele>264</ele>
        <time>2019-09-05T08:02:49Z</time>
      </trkpt>
      <trkpt lat="44.38008" lon="1.4496">
        <ele>264</ele>
        <time>2019-09-05T08:03:17Z</time>
      </trkpt>
      <trkpt lat="44.38" lon="1.44967">
        <ele>263</ele>
        <time>2019-09-05T08:03:30Z</time>
      </trkpt>
      <trkpt lat="44.37994" lon="1.44993">
        <ele>261</ele>
        <time>2019-09-05T08:03:56Z</time>
      </trkpt>
      <trkpt lat="44.37984" lon="1.44994">
        <ele>261</ele>
        <time>2019-09-05T08:04:09Z</time>
      </trkpt>
      <trkpt lat="44.37961" lon="1.4499">
        <ele>261</ele>
        <time>2019-09-05T08:04:40Z</time>
      </trkpt>
      <trkpt lat="44.3795" lon="1.44993">
        <ele>261</ele>
        <time>2019-09-05T08:04:55Z</time>
      </trkpt>
      <trkpt lat="44.37912" lon="1.45014">
        <ele>259</ele>
        <time>2019-09-05T08:05:49Z</time>
      </trkpt>
      <trkpt lat="44.37884" lon="1.45036">
        <ele>258</ele>
        <time>2019-09-05T08:06:32Z</time>
      </trkpt>
      <trkpt lat="44.37849" lon="1.45069">
        <ele>257</ele>
        <time>2019-09-05T08:07:29Z</time>
      </trkpt>
      <trkpt lat="44.37829" lon="1.451">
        <ele>255</ele>
        <time>2019-09-05T08:08:08Z</time>
      </trkpt>
      <trkpt lat="44.37788" lon="1.45037">
        <ele>259</ele>
        <time>2019-09-05T08:09:30Z</time>
      </trkpt>
      <trkpt lat="44.37772" lon="1.45021">
        <ele>260</ele>
        <time>2019-09-05T08:09:56Z</time>
      </trkpt>
      <trkpt lat="44.37766" lon="1.45009">
        <ele>260</ele>
        <time>2019-09-05T08:10:10Z</time>
      </trkpt>
      <trkpt lat="44.37763" lon="1.44996">
        <ele>260</ele>
        <time>2019-09-05T08:10:23Z</time>
      </trkpt>
      <trkpt lat="44.37772" lon="1.44907">
        <ele>260</ele>
        <time>2019-09-05T08:11:49Z</time>
      </trkpt>
      <trkpt lat="44.37769" lon="1.44877">
        <ele>261</ele>
        <time>2019-09-05T08:12:18Z</time>
      </trkpt>
      <trkpt lat="44.37763" lon="1.44849">
        <ele>262</ele>
        <time>2019-09-05T08:12:45Z</time>
      </trkpt>
      <trkpt lat="44.37756" lon="1.44839">
        <ele>261</ele>
        <time>2019-09-05T08:12:59Z</time>
      </trkpt>
      <trkpt lat="44.3773" lon="1.44818">
        <ele>261</ele>
        <time>2019-09-05T08:13:39Z</time>
      </trkpt>
      <trkpt lat="44.377" lon="1.44805">
        <ele>259</ele>
        <time>2019-09-05T08:14:21Z</time>
      </trkpt>
      <trkpt lat="44.37679" lon="1.44805">
        <ele>257</ele>
        <time>2019-09-05T08:14:49Z</time>
      </trkpt>
      <trkpt lat="44.37648" lon="1.44815">
        <ele>253</ele>
        <time>2019-09-05T08:15:31Z</time>
      </trkpt>
      <trkpt lat="44.37629" lon="1.44828">
        <ele>250</ele>
        <time>2019-09-05T08:15:59Z</time>
      </trkpt>
      <trkpt lat="44.37607" lon="1.44857">
        <ele>244</ele>
        <time>2019-09-05T08:16:40Z</time>
      </trkpt>
      <trkpt lat="44.37597" lon="1.4488">
        <ele>241</ele>
        <time>2019-09-05T08:17:05Z</time>
      </trkpt>
      <trkpt lat="44.37588" lon="1.4489">
        <ele>239</ele>
        <time>2019-09-05T08:17:21Z</time>
      </trkpt>
      <trkpt lat="44.3758" lon="1.44913">
        <ele>236</ele>
        <time>2019-09-05T08:17:45Z</time>
      </trkpt>
      <trkpt lat="44.37567" lon="1.44935">
        <ele>232</ele>
        <time>2019-09-05T08:18:12Z</time>
      </trkpt>
      <trkpt lat="44.37535" lon="1.44924">
        <ele>229</ele>
        <time>2019-09-05T08:18:56Z</time>
      </trkpt>
      <trkpt lat="44.37513" lon="1.44933">
        <ele>226</ele>
        <time>2019-09-05T08:19:27Z</time>
      </trkpt>
      <trkpt lat="44.37504" lon="1.44928">
        <ele>225</ele>
        <time>2019-09-05T08:19:40Z</time>
      </trkpt>
      <trkpt lat="44.37495" lon="1.44929">
        <ele>224</ele>
        <time>2019-09-05T08:19:52Z</time>
      </trkpt>
      <trkpt lat="44.37485" lon="1.44953">
        <ele>224</ele>
        <time>2019-09-05T08:20:18Z</time>
      </trkpt>
      <trkpt lat="44.37478" lon="1.44962">
        <ele>223</ele>
        <time>2019-09-05T08:20:31Z</time>
      </trkpt>
      <trkpt lat="44.37476" lon="1.44975">
        <ele>223</ele>
        <time>2019-09-05T08:20:44Z</time>
      </trkpt>
      <trkpt lat="44.37461" lon="1.44986">
        <ele>223</ele>
        <time>2019-09-05T08:21:06Z</time>
      </trkpt>
      <trkpt lat="44.37443" lon="1.45012">
        <ele>224</ele>
        <time>2019-09-05T08:21:41Z</time>
      </trkpt>
      <trkpt lat="44.37426" lon="1.4505">
        <ele>226</ele>
        <time>2019-09-05T08:22:24Z</time>
      </trkpt>
      <trkpt lat="44.37421" lon="1.45089">
        <ele>229</ele>
        <time>2019-09-05T08:23:01Z</time>
      </trkpt>
      <trkpt lat="44.37415" lon="1.45102">
        <ele>229</ele>
        <time>2019-09-05T08:23:16Z</time>
      </trkpt>
      <trkpt lat="44.37403" lon="1.45099">
        <ele>231</ele>
        <time>2019-09-05T08:23:33Z</time>
      </trkpt>
      <trkpt lat="44.37379" lon="1.4512">
        <ele>234</ele>
        <time>2019-09-05T08:24:10Z</time>
      </trkpt>
      <trkpt lat="44.37366" lon="1.45139">
        <ele>236</ele>
        <time>2019-09-05T08:24:35Z</time>
      </trkpt>
      <trkpt lat="44.37359" lon="1.45162">
        <ele>238</ele>
        <time>2019-09-05T08:24:59Z</time>
      </trkpt>
      <trkpt lat="44.37339" lon="1.45162">
        <ele>240</ele>
        <time>2019-09-05T08:25:26Z</time>
      </trkpt>
      <trkpt lat="44.3732" lon="1.45152">
        <ele>241</ele>
        <time>2019-09-05T08:25:53Z</time>
      </trkpt>
      <trkpt lat="44.3731" lon="1.45151">
        <ele>241</ele>
        <time>2019-09-05T08:26:06Z</time>
      </trkpt>
      <trkpt lat="44.3727" lon="1.45157">
        <ele>240</ele>
        <time>2019-09-05T08:27:00Z</time>
      </trkpt>
      <trkpt lat="44.37247" lon="1.45109">
        <ele>245</ele>
        <time>2019-09-05T08:27:55Z</time>
      </trkpt>
      <trkpt lat="44.37236" lon="1.45059">
        <ele>248</ele>
        <time>2019-09-05T08:28:45Z</time>
      </trkpt>
      <trkpt lat="44.3723" lon="1.45047">
        <ele>249</ele>
        <time>2019-09-05T08:28:59Z</time>
      </trkpt>
      <trkpt lat="44.372" lon="1.45013">
        <ele>253</ele>
        <time>2019-09-05T08:29:51Z</time>
      </trkpt>
      <trkpt lat="44.37159" lon="1.45006">
        <ele>257</ele>
        <time>2019-09-05T08:30:46Z</time>
      </trkpt>
      <trkpt lat="44.37112" lon="1.44985">
        <ele>261</ele>
        <time>2019-09-05T08:31:52Z</time>
      </trkpt>
      <trkpt lat="44.37089" lon="1.44955">
        <ele>264</ele>
        <time>2019-09-05T08:32:33Z</time>
      </trkpt>
      <trkpt lat="44.37086" lon="1.4494">
        <ele>265</ele>
        <time>2019-09-05T08:32:48Z</time>
      </trkpt>
      <trkpt lat="44.37085" lon="1.44926">
        <ele>266</ele>
        <time>2019-09-05T08:33:02Z</time>
      </trkpt>
      <trkpt lat="44.37095" lon="1.44901">
        <ele>266</ele>
        <time>2019-09-05T08:33:29Z</time>
      </trkpt>
      <trkpt lat="44.37098" lon="1.44886">
        <ele>265</ele>
        <time>2019-09-05T08:33:44Z</time>
      </trkpt>
      <trkpt lat="44.37095" lon="1.44872">
        <ele>265</ele>
        <time>2019-09-05T08:33:58Z</time>
      </trkpt>
      <trkpt lat="44.37089" lon="1.4486">
        <ele>266</ele>
        <time>2019-09-05T08:34:12Z</time>
      </trkpt>
      <trkpt lat="44.3708" lon="1.44854">
        <ele>267</ele>
        <time>2019-09-05T08:34:25Z</time>
      </trkpt>
      <trkpt lat="44.37049" lon="1.44844">
        <ele>267</ele>
        <time>2019-09-05T08:35:08Z</time>
      </trkpt>
      <trkpt lat="44.37039" lon="1.44837">
        <ele>267</ele>
        <time>2019-09-05T08:35:23Z</time>
      </trkpt>
      <trkpt lat="44.37032" lon="1.44826">
        <ele>267</ele>
        <time>2019-09-05T08:35:37Z</time>
      </trkpt>
      <trkpt lat="44.37022" lon="1.44822">
        <ele>267</ele>
        <time>2019-09-05T08:35:50Z</time>
      </trkpt>
      <trkpt lat="44.37013" lon="1.44823">
        <ele>267</ele>
        <time>2019-09-05T08:36:03Z</time>
      </trkpt>
      <trkpt lat="44.36998" lon="1.44842">
        <ele>267</ele>
        <time>2019-09-05T08:36:30Z</time>
      </trkpt>
      <trkpt lat="44.36988" lon="1.44847">
        <ele>266</ele>
        <time>2019-09-05T08:36:44Z</time>
      </trkpt>
      <trkpt lat="44.36977" lon="1.44847">
        <ele>266</ele>
        <time>2019-09-05T08:36:58Z</time>
      </trkpt>
      <trkpt lat="44.36952" lon="1.44825">
        <ele>267</ele>
        <time>2019-09-05T08:37:38Z</time>
      </trkpt>
      <trkpt lat="44.36942" lon="1.4482">
        <ele>267</ele>
        <time>2019-09-05T08:37:52Z</time>
      </trkpt>
      <trkpt lat="44.3688" lon="1.44803">
        <ele>267</ele>
        <time>2019-09-05T08:39:16Z</time>
      </trkpt>
      <trkpt lat="44.3685" lon="1.44788">
        <ele>267</ele>
        <time>2019-09-05T08:39:59Z</time>
      </trkpt>
      <trkpt lat="44.36799" lon="1.44772">
        <ele>268</ele>
        <time>2019-09-05T08:41:09Z</time>
      </trkpt>
      <trkpt lat="44.36788" lon="1.44765">
        <ele>268</ele>
        <time>2019-09-05T08:41:25Z</time>
      </trkpt>
      <trkpt lat="44.36722" lon="1.44765">
        <ele>266</ele>
        <time>2019-09-05T08:42:53Z</time>
      </trkpt>
      <trkpt lat="44.36667" lon="1.44779">
        <ele>263</ele>
        <time>2019-09-05T08:44:07Z</time>
      </trkpt>
      <trkpt lat="44.36642" lon="1.4478">
        <ele>261</ele>
        <time>2019-09-05T08:44:41Z</time>
      </trkpt>
      <trkpt lat="44.36635" lon="1.44766">
        <ele>261</ele>
        <time>2019-09-05T08:44:57Z</time>
      </trkpt>
      <trkpt lat="44.36627" lon="1.44699">
        <ele>261</ele>
        <time>2019-09-05T08:46:02Z</time>
      </trkpt>
      <trkpt lat="44.36613" lon="1.44525">
        <ele>263</ele>
        <time>2019-09-05T08:48:49Z</time>
      </trkpt>
      <trkpt lat="44.36601" lon="1.44453">
        <ele>263</ele>
        <time>2019-09-05T08:49:59Z</time>
      </trkpt>
      <trkpt lat="44.36588" lon="1.44397">
        <ele>264</ele>
        <time>2019-09-05T08:50:56Z</time>
      </trkpt>
      <trkpt lat="44.36565" lon="1.44322">
        <ele>267</ele>
        <time>2019-09-05T08:52:13Z</time>
      </trkpt>
      <trkpt lat="44.36516" lon="1.44188">
        <ele>271</ele>
        <time>2019-09-05T08:54:37Z</time>
      </trkpt>
      <trkpt lat="44.36511" lon="1.44145">
        <ele>271</ele>
        <time>2019-09-05T08:55:19Z</time>
      </trkpt>
      <trkpt lat="44.36476" lon="1.44006">
        <ele>264</ele>
        <time>2019-09-05T08:57:39Z</time>
      </trkpt>
      <trkpt lat="44.3647" lon="1.43966">
        <ele>265</ele>
        <time>2019-09-05T08:58:18Z</time>
      </trkpt>
      <trkpt lat="44.36432" lon="1.43857">
        <ele>280</ele>
        <time>2019-09-05T09:00:14Z</time>
      </trkpt>
      <trkpt lat="44.36424" lon="1.43828">
        <ele>284</ele>
        <time>2019-09-05T09:00:44Z</time>
      </trkpt>
      <trkpt lat="44.36421" lon="1.43806">
        <ele>285</ele>
        <time>2019-09-05T09:01:05Z</time>
      </trkpt>
      <trkpt lat="44.36415" lon="1.4379">
        <ele>286</ele>
        <time>2019-09-05T09:01:22Z</time>
      </trkpt>
      <trkpt lat="44.36374" lon="1.43733">
        <ele>286</ele>
        <time>2019-09-05T09:02:39Z</time>
      </trkpt>
      <trkpt lat="44.36363" lon="1.43728">
        <ele>286</ele>
        <time>2019-09-05T09:02:55Z</time>
      </trkpt>
      <trkpt lat="44.36338" lon="1.43727">
        <ele>286</ele>
        <time>2019-09-05T09:03:28Z</time>
      </trkpt>
      <trkpt lat="44.36295" lon="1.43666">
        <ele>286</ele>
        <time>2019-09-05T09:04:50Z</time>
      </trkpt>
      <trkpt lat="44.36256" lon="1.436">
        <ele>283</ele>
        <time>2019-09-05T09:06:11Z</time>
      </trkpt>
      <trkpt lat="44.36246" lon="1.43588">
        <ele>282</ele>
        <time>2019-09-05T09:06:29Z</time>
      </trkpt>
      <trkpt lat="44.36234" lon="1.43565">
        <ele>281</ele>
        <time>2019-09-05T09:06:56Z</time>
      </trkpt>
      <trkpt lat="44.36217" lon="1.43549">
        <ele>281</ele>
        <time>2019-09-05T09:07:24Z</time>
      </trkpt>
      <trkpt lat="44.36201" lon="1.43508">
        <ele>280</ele>
        <time>2019-09-05T09:08:08Z</time>
      </trkpt>
      <trkpt lat="44.36194" lon="1.43498">
        <ele>281</ele>
        <time>2019-09-05T09:08:21Z</time>
      </trkpt>
      <trkpt lat="44.36181" lon="1.43461">
        <ele>283</ele>
        <time>2019-09-05T09:09:01Z</time>
      </trkpt>
      <trkpt lat="44.36179" lon="1.43449">
        <ele>284</ele>
        <time>2019-09-05T09:09:13Z</time>
      </trkpt>
      <trkpt lat="44.36185" lon="1.43455">
        <ele>283</ele>
        <time>2019-09-05T09:09:22Z</time>
      </trkpt>
      <trkpt lat="44.3618" lon="1.43449">
        <ele>284</ele>
        <time>2019-09-05T09:09:31Z</time>
      </trkpt>
      <trkpt lat="44.36158" lon="1.43388">
        <ele>288</ele>
        <time>2019-09-05T09:10:36Z</time>
      </trkpt>
      <trkpt lat="44.36128" lon="1.43331">
        <ele>291</ele>
        <time>2019-09-05T09:11:44Z</time>
      </trkpt>
      <trkpt lat="44.3611" lon="1.43274">
        <ele>287</ele>
        <time>2019-09-05T09:12:43Z</time>
      </trkpt>
      <trkpt lat="44.36087" lon="1.43225">
        <ele>283</ele>
        <time>2019-09-05T09:13:39Z</time>
      </trkpt>
      <trkpt lat="44.36074" lon="1.43204">
        <ele>282</ele>
        <time>2019-09-05T09:14:06Z</time>
      </trkpt>
      <trkpt lat="44.36052" lon="1.43178">
        <ele>282</ele>
        <time>2019-09-05T09:14:44Z</time>
      </trkpt>
      <trkpt lat="44.36023" lon="1.43165">
        <ele>282</ele>
        <time>2019-09-05T09:15:25Z</time>
      </trkpt>
      <trkpt lat="44.35973" lon="1.43148">
        <ele>282</ele>
        <time>2019-09-05T09:16:34Z</time>
      </trkpt>
      <trkpt lat="44.35944" lon="1.43131">
        <ele>283</ele>
        <time>2019-09-05T09:17:15Z</time>
      </trkpt>
      <trkpt lat="44.35928" lon="1.4311">
        <ele>282</ele>
        <time>2019-09-05T09:17:45Z</time>
      </trkpt>
      <trkpt lat="44.35915" lon="1.43071">
        <ele>281</ele>
        <time>2019-09-05T09:18:26Z</time>
      </trkpt>
      <trkpt lat="44.35881" lon="1.43014">
        <ele>281</ele>
        <time>2019-09-05T09:19:37Z</time>
      </trkpt>
      <trkpt lat="44.3589" lon="1.43006">
        <ele>280</ele>
        <time>2019-09-05T09:19:51Z</time>
      </trkpt>
      <trkpt lat="44.3591" lon="1.43003">
        <ele>279</ele>
        <time>2019-09-05T09:20:18Z</time>
      </trkpt>
      <trkpt lat="44.35939" lon="1.42984">
        <ele>279</ele>
        <time>2019-09-05T09:21:00Z</time>
      </trkpt>
      <trkpt lat="44.3597" lon="1.42975">
        <ele>279</ele>
        <time>2019-09-05T09:21:43Z</time>
      </trkpt>
      <trkpt lat="44.35981" lon="1.42975">
        <ele>279</ele>
        <time>2019-09-05T09:21:57Z</time>
      </trkpt>
      <trkpt lat="44.36012" lon="1.42982">
        <ele>278</ele>
        <time>2019-09-05T09:22:39Z</time>
      </trkpt>
      <trkpt lat="44.36063" lon="1.42986">
        <ele>276</ele>
        <time>2019-09-05T09:23:47Z</time>
      </trkpt>
      <trkpt lat="44.36134" lon="1.43002">
        <ele>270</ele>
        <time>2019-09-05T09:25:23Z</time>
      </trkpt>
      <trkpt lat="44.36185" lon="1.43005">
        <ele>268</ele>
        <time>2019-09-05T09:26:32Z</time>
      </trkpt>
      <trkpt lat="44.36195" lon="1.43003">
        <ele>267</ele>
        <time>2019-09-05T09:26:45Z</time>
      </trkpt>
      <trkpt lat="44.36223" lon="1.42979">
        <ele>266</ele>
        <time>2019-09-05T09:27:29Z</time>
      </trkpt>
      <trkpt lat="44.36246" lon="1.42923">
        <ele>263</ele>
        <time>2019-09-05T09:28:30Z</time>
      </trkpt>
      <trkpt lat="44.36272" lon="1.42887">
        <ele>263</ele>
        <time>2019-09-05T09:29:19Z</time>
      </trkpt>
      <trkpt lat="44.36286" lon="1.42873">
        <ele>263</ele>
        <time>2019-09-05T09:29:42Z</time>
      </trkpt>
      <trkpt lat="44.36303" lon="1.42867">
        <ele>261</ele>
        <time>2019-09-05T09:30:06Z</time>
      </trkpt>
      <trkpt lat="44.36326" lon="1.42863">
        <ele>258</ele>
        <time>2019-09-05T09:30:37Z</time>
      </trkpt>
      <trkpt lat="44.36347" lon="1.42872">
        <ele>258</ele>
        <time>2019-09-05T09:31:06Z</time>
      </trkpt>
      <trkpt lat="44.36389" lon="1.42882">
        <ele>259</ele>
        <time>2019-09-05T09:32:03Z</time>
      </trkpt>
      <trkpt lat="44.36404" lon="1.42882">
        <ele>259</ele>
        <time>2019-09-05T09:32:23Z</time>
      </trkpt>
      <trkpt lat="44.36447" lon="1.42888">
        <ele>257</ele>
        <time>2019-09-05T09:33:20Z</time>
      </trkpt>
      <trkpt lat="44.365" lon="1.42898">
        <ele>253</ele>
        <time>2019-09-05T09:34:32Z</time>
      </trkpt>
      <trkpt lat="44.36554" lon="1.4292">
        <ele>248</ele>
        <time>2019-09-05T09:35:47Z</time>
      </trkpt>
      <trkpt lat="44.36589" lon="1.4294">
        <ele>248</ele>
        <time>2019-09-05T09:36:37Z</time>
      </trkpt>
      <trkpt lat="44.367" lon="1.43012">
        <ele>244</ele>
        <time>2019-09-05T09:39:21Z</time>
      </trkpt>
      <trkpt lat="44.3673" lon="1.43044">
        <ele>242</ele>
        <time>2019-09-05T09:40:11Z</time>
      </trkpt>
      <trkpt lat="44.3676" lon="1.4307">
        <ele>241</ele>
        <time>2019-09-05T09:40:58Z</time>
      </trkpt>
      <trkpt lat="44.3679" lon="1.43108">
        <ele>241</ele>
        <time>2019-09-05T09:41:52Z</time>
      </trkpt>
      <trkpt lat="44.36815" lon="1.4313">
        <ele>240</ele>
        <time>2019-09-05T09:42:31Z</time>
      </trkpt>
      <trkpt lat="44.36825" lon="1.43135">
        <ele>240</ele>
        <time>2019-09-05T09:42:46Z</time>
      </trkpt>
      <trkpt lat="44.36852" lon="1.43138">
        <ele>239</ele>
        <time>2019-09-05T09:43:22Z</time>
      </trkpt>
      <trkpt lat="44.36908" lon="1.4314">
        <ele>238</ele>
        <time>2019-09-05T09:44:37Z</time>
      </trkpt>
      <trkpt lat="44.36943" lon="1.43144">
        <ele>237</ele>
        <time>2019-09-05T09:45:23Z</time>
      </trkpt>
      <trkpt lat="44.36957" lon="1.43147">
        <ele>237</ele>
        <time>2019-09-05T09:45:42Z</time>
      </trkpt>
      <trkpt lat="44.37031" lon="1.43173">
        <ele>232</ele>
        <time>2019-09-05T09:47:24Z</time>
      </trkpt>
      <trkpt lat="44.37093" lon="1.43188">
        <ele>231</ele>
        <time>2019-09-05T09:48:48Z</time>
      </trkpt>
      <trkpt lat="44.37115" lon="1.43197">
        <ele>231</ele>
        <time>2019-09-05T09:49:19Z</time>
      </trkpt>
      <trkpt lat="44.37146" lon="1.43219">
        <ele>228</ele>
        <time>2019-09-05T09:50:05Z</time>
      </trkpt>
      <trkpt lat="44.37154" lon="1.43231">
        <ele>227</ele>
        <time>2019-09-05T09:50:21Z</time>
      </trkpt>
      <trkpt lat="44.3716" lon="1.43248">
        <ele>224</ele>
        <time>2019-09-05T09:50:39Z</time>
      </trkpt>
      <trkpt lat="44.37169" lon="1.4326">
        <ele>224</ele>
        <time>2019-09-05T09:50:55Z</time>
      </trkpt>
      <trkpt lat="44.37181" lon="1.43262">
        <ele>223</ele>
        <time>2019-09-05T09:51:11Z</time>
      </trkpt>
      <trkpt lat="44.37192" lon="1.43257">
        <ele>222</ele>
        <time>2019-09-05T09:51:27Z</time>
      </trkpt>
      <trkpt lat="44.37223" lon="1.43236">
        <ele>221</ele>
        <time>2019-09-05T09:52:13Z</time>
      </trkpt>
      <trkpt lat="44.37245" lon="1.43216">
        <ele>221</ele>
        <time>2019-09-05T09:52:48Z</time>
      </trkpt>
      <trkpt lat="44.37261" lon="1.43193">
        <ele>220</ele>
        <time>2019-09-05T09:53:19Z</time>
      </trkpt>
      <trkpt lat="44.37272" lon="1.43183">
        <ele>219</ele>
        <time>2019-09-05T09:53:36Z</time>
      </trkpt>
      <trkpt lat="44.37295" lon="1.4317">
        <ele>216</ele>
        <time>2019-09-05T09:54:09Z</time>
      </trkpt>
      <trkpt lat="44.3732" lon="1.43148">
        <ele>215</ele>
        <time>2019-09-05T09:54:49Z</time>
      </trkpt>
      <trkpt lat="44.37335" lon="1.43139">
        <ele>214</ele>
        <time>2019-09-05T09:55:10Z</time>
      </trkpt>
      <trkpt lat="44.37349" lon="1.43123">
        <ele>215</ele>
        <time>2019-09-05T09:55:34Z</time>
      </trkpt>
      <trkpt lat="44.37362" lon="1.43113">
        <ele>215</ele>
        <time>2019-09-05T09:55:54Z</time>
      </trkpt>
      <trkpt lat="44.3738" lon="1.43107">
        <ele>214</ele>
        <time>2019-09-05T09:56:19Z</time>
      </trkpt>
      <trkpt lat="44.37389" lon="1.43116">
        <ele>213</ele>
        <time>2019-09-05T09:56:34Z</time>
      </trkpt>
      <trkpt lat="44.37416" lon="1.43134">
        <ele>211</ele>
        <time>2019-09-05T09:57:14Z</time>
      </trkpt>
      <trkpt lat="44.37451" lon="1.43162">
        <ele>210</ele>
        <time>2019-09-05T09:58:07Z</time>
      </trkpt>
      <trkpt lat="44.37476" lon="1.43185">
        <ele>209</ele>
        <time>2019-09-05T09:58:47Z</time>
      </trkpt>
      <trkpt lat="44.37616" lon="1.433">
        <ele>204</ele>
        <time>2019-09-05T10:02:24Z</time>
      </trkpt>
      <trkpt lat="44.37625" lon="1.43296">
        <ele>204</ele>
        <time>2019-09-05T10:02:37Z</time>
      </trkpt>
      <trkpt lat="44.37638" lon="1.43273">
        <ele>204</ele>
        <time>2019-09-05T10:03:05Z</time>
      </trkpt>
      <trkpt lat="44.37656" lon="1.43256">
        <ele>204</ele>
        <time>2019-09-05T10:03:34Z</time>
      </trkpt>
      <trkpt lat="44.37733" lon="1.43287">
        <ele>204</ele>
        <time>2019-09-05T10:05:20Z</time>
      </trkpt>
      <trkpt lat="44.3777" lon="1.43312">
        <ele>203</ele>
        <time>2019-09-05T10:06:15Z</time>
      </trkpt>
      <trkpt lat="44.3781" lon="1.4333">
        <ele>203</ele>
        <time>2019-09-05T10:07:11Z</time>
      </trkpt>
      <trkpt lat="44.37844" lon="1.43351">
        <ele>203</ele>
        <time>2019-09-05T10:08:01Z</time>
      </trkpt>
      <trkpt lat="44.37855" lon="1.43359">
        <ele>203</ele>
        <time>2019-09-05T10:08:17Z</time>
      </trkpt>
      <trkpt lat="44.37888" lon="1.43399">
        <ele>200</ele>
        <time>2019-09-05T10:09:16Z</time>
      </trkpt>
      <trkpt lat="44.37898" lon="1.43405">
        <ele>200</ele>
        <time>2019-09-05T10:09:30Z</time>
      </trkpt>
      <trkpt lat="44.3794" lon="1.43416">
        <ele>199</ele>
        <time>2019-09-05T10:10:27Z</time>
      </trkpt>
      <trkpt lat="44.37951" lon="1.43421">
        <ele>199</ele>
        <time>2019-09-05T10:10:43Z</time>
      </trkpt>
      <trkpt lat="44.37968" lon="1.43438">
        <ele>199</ele>
        <time>2019-09-05T10:11:11Z</time>
      </trkpt>
      <trkpt lat="44.37979" lon="1.4344">
        <ele>199</ele>
        <time>2019-09-05T10:11:25Z</time>
      </trkpt>
      <trkpt lat="44.37999" lon="1.43458">
        <ele>198</ele>
        <time>2019-09-05T10:11:57Z</time>
      </trkpt>
      <trkpt lat="44.38022" lon="1.43472">
        <ele>197</ele>
        <time>2019-09-05T10:12:31Z</time>
      </trkpt>
      <trkpt lat="44.38034" lon="1.4347">
        <ele>197</ele>
        <time>2019-09-05T10:12:47Z</time>
      </trkpt>
      <trkpt lat="44.3807" lon="1.43451">
        <ele>197</ele>
        <time>2019-09-05T10:13:38Z</time>
      </trkpt>
      <trkpt lat="44.38105" lon="1.43439">
        <ele>198</ele>
        <time>2019-09-05T10:14:26Z</time>
      </trkpt>
      <trkpt lat="44.38117" lon="1.43438">
        <ele>199</ele>
        <time>2019-09-05T10:14:42Z</time>
      </trkpt>
      <trkpt lat="44.38129" lon="1.43441">
        <ele>199</ele>
        <time>2019-09-05T10:14:58Z</time>
      </trkpt>
      <trkpt lat="44.38174" lon="1.43481">
        <ele>200</ele>
        <time>2019-09-05T10:16:10Z</time>
      </trkpt>
      <trkpt lat="44.38201" lon="1.4351">
        <ele>201</ele>
        <time>2019-09-05T10:16:55Z</time>
      </trkpt>
      <trkpt lat="44.38216" lon="1.43543">
        <ele>199</ele>
        <time>2019-09-05T10:17:32Z</time>
      </trkpt>
      <trkpt lat="44.38226" lon="1.43557">
        <ele>198</ele>
        <time>2019-09-05T10:17:51Z</time>
      </trkpt>
      <trkpt lat="44.38237" lon="1.43562">
        <ele>197</ele>
        <time>2019-09-05T10:18:07Z</time>
      </trkpt>
      <trkpt lat="44.38282" lon="1.43568">
        <ele>198</ele>
        <time>2019-09-05T10:19:07Z</time>
      </trkpt>
      <trkpt lat="44.38335" lon="1.43583">
        <ele>198</ele>
        <time>2019-09-05T10:20:19Z</time>
      </trkpt>
      <trkpt lat="44.38361" lon="1.43592">
        <ele>200</ele>
        <time>2019-09-05T10:20:55Z</time>
      </trkpt>
      <trkpt lat="44.38388" lon="1.43606">
        <ele>200</ele>
        <time>2019-09-05T10:21:33Z</time>
      </trkpt>
      <trkpt lat="44.38486" lon="1.43642">
        <ele>200</ele>
        <time>2019-09-05T10:23:49Z</time>
      </trkpt>
      <trkpt lat="44.38513" lon="1.43656">
        <ele>199</ele>
        <time>2019-09-05T10:24:27Z</time>
      </trkpt>
      <trkpt lat="44.38529" lon="1.43668">
        <ele>199</ele>
        <time>2019-09-05T10:24:51Z</time>
      </trkpt>
      <trkpt lat="44.38559" lon="1.437">
        <ele>199</ele>
        <time>2019-09-05T10:25:42Z</time>
      </trkpt>
      <trkpt lat="44.38604" lon="1.43738">
        <ele>194</ele>
        <time>2019-09-05T10:26:52Z</time>
      </trkpt>
      <trkpt lat="44.38646" lon="1.43778">
        <ele>192</ele>
        <time>2019-09-05T10:27:59Z</time>
      </trkpt>
      <trkpt lat="44.38701" lon="1.43817">
        <ele>193</ele>
        <time>2019-09-05T10:29:22Z</time>
      </trkpt>
      <trkpt lat="44.38722" lon="1.43835">
        <ele>193</ele>
        <time>2019-09-05T10:29:55Z</time>
      </trkpt>
      <trkpt lat="44.38753" lon="1.43867">
        <ele>194</ele>
        <time>2019-09-05T10:30:46Z</time>
      </trkpt>
      <trkpt lat="44.38762" lon="1.43882">
        <ele>195</ele>
        <time>2019-09-05T10:31:05Z</time>
      </trkpt>
      <trkpt lat="44.38767" lon="1.43897">
        <ele>195</ele>
        <time>2019-09-05T10:31:20Z</time>
      </trkpt>
      <trkpt lat="44.38779" lon="1.43947">
        <ele>194</ele>
        <time>2019-09-05T10:32:11Z</time>
      </trkpt>
      <trkpt lat="44.38782" lon="1.43981">
        <ele>192</ele>
        <time>2019-09-05T10:32:43Z</time>
      </trkpt>
      <trkpt lat="44.38779" lon="1.44041">
        <ele>189</ele>
        <time>2019-09-05T10:33:41Z</time>
      </trkpt>
      <trkpt lat="44.38781" lon="1.44068">
        <ele>189</ele>
        <time>2019-09-05T10:34:07Z</time>
      </trkpt>
      <trkpt lat="44.38795" lon="1.44104">
        <ele>190</ele>
        <time>2019-09-05T10:34:46Z</time>
      </trkpt>
      <trkpt lat="44.38812" lon="1.44124">
        <ele>189</ele>
        <time>2019-09-05T10:35:15Z</time>
      </trkpt>
      <trkpt lat="44.38958" lon="1.44238">
        <ele>182</ele>
        <time>2019-09-05T10:38:59Z</time>
      </trkpt>
      <trkpt lat="44.38997" lon="1.44285">
        <ele>181</ele>
        <time>2019-09-05T10:40:07Z</time>
      </trkpt>
      <trkpt lat="44.39006" lon="1.44281">
        <ele>182</ele>
        <time>2019-09-05T10:40:20Z</time>
      </trkpt>
      <trkpt lat="44.39027" lon="1.44247">
        <ele>183</ele>
        <time>2019-09-05T10:41:03Z</time>
      </trkpt>
      <trkpt lat="44.39049" lon="1.44218">
        <ele>184</ele>
        <time>2019-09-05T10:41:43Z</time>
      </trkpt>
      <trkpt lat="44.39075" lon="1.44194">
        <ele>183</ele>
        <time>2019-09-05T10:42:25Z</time>
      </trkpt>
      <trkpt lat="44.39086" lon="1.4419">
        <ele>182</ele>
        <time>2019-09-05T10:42:40Z</time>
      </trkpt>
      <trkpt lat="44.39045" lon="1.44236">
        <ele>184</ele>
        <time>2019-09-05T10:43:50Z</time>
      </trkpt>
      <trkpt lat="44.39" lon="1.44314">
        <ele>183</ele>
        <time>2019-09-05T10:45:25Z</time>
      </trkpt>
      <trkpt lat="44.38983" lon="1.44353">
        <ele>187</ele>
        <time>2019-09-05T10:46:09Z</time>
      </trkpt>
      <trkpt lat="44.38962" lon="1.44393">
        <ele>191</ele>
        <time>2019-09-05T10:46:56Z</time>
      </trkpt>
      <trkpt lat="44.38939" lon="1.44424">
        <ele>192</ele>
        <time>2019-09-05T10:47:39Z</time>
      </trkpt>
      <trkpt lat="44.38931" lon="1.44431">
        <ele>193</ele>
        <time>2019-09-05T10:47:52Z</time>
      </trkpt>
      <trkpt lat="44.38912" lon="1.44443">
        <ele>193</ele>
        <time>2019-09-05T10:48:19Z</time>
      </trkpt>
      <trkpt lat="44.38901" lon="1.44447">
        <ele>194</ele>
        <time>2019-09-05T10:48:35Z</time>
      </trkpt>
      <trkpt lat="44.38828" lon="1.44457">
        <ele>201</ele>
        <time>2019-09-05T10:50:12Z</time>
      </trkpt>
      <trkpt lat="44.38789" lon="1.44465">
        <ele>202</ele>
        <time>2019-09-05T10:51:05Z</time>
      </trkpt>
      <trkpt lat="44.38737" lon="1.44486">
        <ele>203</ele>
        <time>2019-09-05T10:52:17Z</time>
      </trkpt>
      <trkpt lat="44.38715" lon="1.44481">
        <ele>204</ele>
        <time>2019-09-05T10:52:47Z</time>
      </trkpt>
      <trkpt lat="44.38675" lon="1.44456">
        <ele>206</ele>
        <time>2019-09-05T10:53:45Z</time>
      </trkpt>
      <trkpt lat="44.38663" lon="1.44451">
        <ele>207</ele>
        <time>2019-09-05T10:54:02Z</time>
      </trkpt>
      <trkpt lat="44.38656" lon="1.44459">
        <ele>208</ele>
        <time>2019-09-05T10:54:14Z</time>
      </trkpt>
      <trkpt lat="44.38651" lon="1.44472">
        <ele>208</ele>
        <time>2019-09-05T10:54:28Z</time>
      </trkpt>
      <trkpt lat="44.38651" lon="1.44484">
        <ele>208</ele>
        <time>2019-09-05T10:54:40Z</time>
      </trkpt>
      <trkpt lat="44.38621" lon="1.44481">
        <ele>212</ele>
        <time>2019-09-05T10:55:20Z</time>
      </trkpt>
      <trkpt lat="44.38581" lon="1.44496">
        <ele>219</ele>
        <time>2019-09-05T10:56:15Z</time>
      </trkpt>
      <trkpt lat="44.38527" lon="1.4453">
        <ele>231</ele>
        <time>2019-09-05T10:57:34Z</time>
      </trkpt>
      <trkpt lat="44.38518" lon="1.44539">
        <ele>233</ele>
        <time>2019-09-05T10:57:49Z</time>
      </trkpt>
      <trkpt lat="44.38486" lon="1.44604">
        <ele>245</ele>
        <time>2019-09-05T10:59:04Z</time>
      </trkpt>
      <trkpt lat="44.38457" lon="1.44649">
        <ele>248</ele>
        <time>2019-09-05T11:00:02Z</time>
      </trkpt>
      <trkpt lat="44.38449" lon="1.44658">
        <ele>249</ele>
        <time>2019-09-05T11:00:16Z</time>
      </trkpt>
      <trkpt lat="44.38439" lon="1.44661">
        <ele>250</ele>
        <time>2019-09-05T11:00:29Z</time>
      </trkpt>
      <trkpt lat="44.38423" lon="1.44678">
        <ele>251</ele>
        <time>2019-09-05T11:00:56Z</time>
      </trkpt>
      <trkpt lat="44.38413" lon="1.4468">
        <ele>251</ele>
        <time>2019-09-05T11:01:10Z</time>
      </trkpt>
      <trkpt lat="44.3836" lon="1.44678">
        <ele>254</ele>
        <time>2019-09-05T11:02:20Z</time>
      </trkpt>
      <trkpt lat="44.38327" lon="1.44687">
        <ele>255</ele>
        <time>2019-09-05T11:03:05Z</time>
      </trkpt>
      <trkpt lat="44.38278" lon="1.4469">
        <ele>256</ele>
        <time>2019-09-05T11:04:11Z</time>
      </trkpt>
      <trkpt lat="44.38236" lon="1.44703">
        <ele>257</ele>
        <time>2019-09-05T11:05:08Z</time>
      </trkpt>
      <trkpt lat="44.38215" lon="1.44707">
        <ele>258</ele>
        <time>2019-09-05T11:05:36Z</time>
      </trkpt>
      <trkpt lat="44.38174" lon="1.44709">
        <ele>259</ele>
        <time>2019-09-05T11:06:31Z</time>
      </trkpt>
      <trkpt lat="44.38165" lon="1.44717">
        <ele>259</ele>
        <time>2019-09-05T11:06:45Z</time>
      </trkpt>
      <trkpt lat="44.38158" lon="1.44742">
        <ele>261</ele>
        <time>2019-09-05T11:07:11Z</time>
      </trkpt>
      <trkpt lat="44.38149" lon="1.44752">
        <ele>261</ele>
        <time>2019-09-05T11:07:26Z</time>
      </trkpt>
      <trkpt lat="44.38131" lon="1.44763">
        <ele>262</ele>
        <time>2019-09-05T11:07:52Z</time>
      </trkpt>
      <trkpt lat="44.38081" lon="1.44783">
        <ele>264</ele>
        <time>2019-09-05T11:09:02Z</time>
      </trkpt>
      <trkpt lat="44.38063" lon="1.44797">
        <ele>265</ele>
        <time>2019-09-05T11:09:29Z</time>
      </trkpt>
      <trkpt lat="44.38039" lon="1.44825">
        <ele>267</ele>
        <time>2019-09-05T11:10:11Z</time>
      </trkpt>
      <trkpt lat="44.38026" lon="1.44799">
        <ele>265</ele>
        <time>2019-09-05T11:10:41Z</time>
      </trkpt>
      <trkpt lat="44.37988" lon="1.44684">
        <ele>260</ele>
        <time>2019-09-05T11:12:42Z</time>
      </trkpt>
      <trkpt lat="44.37981" lon="1.44673">
        <ele>260</ele>
        <time>2019-09-05T11:12:56Z</time>
      </trkpt>
    </trkseg>
  </trk>
</gpx>